createdAt,value
2022-10-19T00:02:57.362Z,101470.63
2022-10-19T00:08:01.671Z,101466.34
2022-10-19T00:13:05.677Z,101463.72
2022-10-19T00:18:08.486Z,101461.22
2022-10-19T00:23:11.211Z,101471.22
2022-10-19T00:28:15.232Z,101470.38
2022-10-19T00:33:21.252Z,101466.97
2022-10-19T00:38:23.902Z,101464.50
2022-10-19T00:43:28.757Z,101460.84
2022-10-19T00:48:32.886Z,101453.97
2022-10-19T00:53:35.513Z,101449.56
2022-10-19T00:58:39.679Z,101465.09
2022-10-19T01:03:42.318Z,101448.25
2022-10-19T01:08:45.167Z,101452.09
2022-10-19T01:13:54.402Z,101443.94
2022-10-19T01:18:59.277Z,101447.00
2022-10-19T01:24:27.441Z,101454.22
2022-10-19T01:29:39.646Z,101450.78
2022-10-19T01:34:46.039Z,101447.38
2022-10-19T01:39:51.808Z,101447.38
2022-10-19T01:44:55.511Z,101448.44
2022-10-19T01:50:00.280Z,101455.75
2022-10-19T01:55:03.155Z,101445.88
2022-10-19T02:00:07.467Z,101448.72
2022-10-19T02:05:22.219Z,101459.47
2022-10-19T02:10:24.982Z,101464.84
2022-10-19T02:15:28.017Z,101456.88
2022-10-19T02:20:32.055Z,101456.00
2022-10-19T02:25:34.717Z,101455.25
2022-10-19T02:30:37.342Z,101455.25
2022-10-19T02:35:41.347Z,101449.03
2022-10-19T02:40:46.177Z,101439.25
2022-10-19T02:45:52.533Z,101435.59
2022-10-19T02:50:56.767Z,101432.03
2022-10-19T02:55:59.410Z,101428.50
2022-10-19T03:01:02.073Z,101429.47
2022-10-19T03:06:06.152Z,101435.69
2022-10-19T03:11:08.799Z,101440.19
2022-10-19T03:16:12.488Z,101448.25
2022-10-19T03:21:16.558Z,101442.97
2022-10-19T03:26:19.276Z,101441.94
2022-10-19T03:31:21.991Z,101440.31
2022-10-19T03:36:26.939Z,101457.19
2022-10-19T03:41:31.172Z,101466.47
2022-10-19T03:46:33.952Z,101468.19
2022-10-19T03:51:38.154Z,101457.53
2022-10-19T03:56:40.801Z,101470.09
2022-10-19T04:01:44.582Z,101456.69
2022-10-19T04:06:49.872Z,101456.88
2022-10-19T04:11:52.488Z,101448.81
2022-10-19T04:16:55.117Z,101455.16
2022-10-19T04:21:59.422Z,101456.97
2022-10-19T04:27:02.625Z,101467.72
2022-10-19T04:32:05.481Z,101468.69
2022-10-19T04:37:09.450Z,101468.75
2022-10-19T04:42:12.102Z,101482.09
2022-10-19T04:47:14.741Z,101479.56
2022-10-19T04:52:18.856Z,101470.66
2022-10-19T04:57:21.520Z,101472.47
2022-10-19T05:02:24.258Z,101471.53
2022-10-19T05:07:28.238Z,101468.94
2022-10-19T05:12:30.913Z,101477.00
2022-10-19T05:17:33.882Z,101477.09
2022-10-19T05:22:38.135Z,101477.09
2022-10-19T05:27:40.824Z,101469.13
2022-10-19T05:32:43.671Z,101479.97
2022-10-19T05:37:47.711Z,101486.25
2022-10-19T05:42:50.359Z,101488.03
2022-10-19T05:47:53.035Z,101486.19
2022-10-19T05:52:57.321Z,101502.38
2022-10-19T05:57:59.949Z,101504.38
2022-10-19T06:03:02.604Z,101493.75
2022-10-19T06:08:06.607Z,101508.91
2022-10-19T06:13:09.446Z,101512.53
2022-10-19T06:18:12.552Z,101511.59
2022-10-19T06:23:16.885Z,101515.41
2022-10-19T06:28:19.542Z,101526.06
2022-10-19T06:33:22.195Z,101525.97
2022-10-19T06:38:26.247Z,101534.88
2022-10-19T06:43:28.956Z,101527.97
2022-10-19T06:48:31.704Z,101534.22
2022-10-19T06:53:36.024Z,101531.31
2022-10-19T06:58:38.903Z,101539.56
2022-10-19T07:03:43.132Z,101548.56
2022-10-19T07:08:47.302Z,101553.91
2022-10-19T07:13:50.006Z,101554.81
2022-10-19T07:18:53.574Z,101551.19
2022-10-19T07:23:57.567Z,101558.38
2022-10-19T07:29:00.286Z,101560.09
2022-10-19T07:34:03.762Z,101567.28
2022-10-19T07:39:08.393Z,101574.38
2022-10-19T07:44:13.404Z,101575.34
2022-10-19T07:49:19.288Z,101568.25
2022-10-19T07:54:24.550Z,101569.00
2022-10-19T07:59:27.210Z,101571.59
2022-10-19T08:09:54.478Z,101582.44
2022-10-19T08:14:57.304Z,101587.59
2022-10-19T08:20:00.038Z,101585.78
2022-10-19T08:25:04.350Z,101584.06
2022-10-19T08:30:07.961Z,101585.78
2022-10-19T08:35:11.052Z,101584.91
2022-10-19T08:40:18.881Z,101577.81
2022-10-19T08:45:28.538Z,101578.59
2022-10-19T08:50:35.286Z,101576.44
2022-10-19T08:55:45.160Z,101573.66
2022-10-19T09:00:50.347Z,101562.41
2022-10-19T09:05:55.070Z,101573.03
2022-10-19T09:10:59.120Z,101580.41
2022-10-19T09:16:01.844Z,101578.00
2022-10-19T09:21:05.967Z,101580.84
2022-10-19T09:26:14.199Z,101582.94
2022-10-19T09:31:19.275Z,101587.31
2022-10-19T09:36:23.038Z,101583.81
2022-10-19T09:41:31.782Z,101580.66
2022-10-19T09:46:39.049Z,101589.50
2022-10-19T09:51:46.794Z,101588.81
2022-10-19T09:56:55.257Z,101586.47
2022-10-19T10:02:04.519Z,101573.78
2022-10-19T10:07:07.169Z,101578.00
2022-10-19T10:12:13.614Z,101582.88
2022-10-19T10:22:38.062Z,101579.94
2022-10-19T10:27:42.061Z,101579.84
2022-10-19T10:32:48.104Z,101578.81
2022-10-19T10:37:50.922Z,101583.50
2022-10-19T10:42:55.445Z,101573.44
2022-10-19T10:47:58.228Z,101573.34
2022-10-19T10:53:01.682Z,101577.59
2022-10-19T10:58:12.884Z,101571.28
2022-10-19T11:03:17.499Z,101574.72
2022-10-19T11:08:23.524Z,101579.03
2022-10-19T11:13:30.000Z,101573.59
2022-10-19T11:18:35.329Z,101567.53
2022-10-19T11:23:46.697Z,101568.94
2022-10-19T11:28:57.686Z,101566.50
2022-10-19T11:34:03.312Z,101563.38
2022-10-19T11:39:16.310Z,101561.75
2022-10-19T11:44:27.403Z,101553.34
2022-10-19T11:49:42.248Z,101550.31
2022-10-19T11:54:52.255Z,101546.59
2022-10-19T12:00:14.998Z,101551.78
2022-10-19T12:05:26.465Z,101541.13
2022-10-19T12:10:32.240Z,101546.16
2022-10-19T12:15:38.878Z,101536.09
2022-10-19T12:20:44.845Z,101533.25
2022-10-19T12:25:47.510Z,101526.16
2022-10-19T12:30:51.888Z,101521.47
2022-10-19T12:36:00.027Z,101519.53
2022-10-19T12:41:06.092Z,101522.94
2022-10-19T12:46:15.001Z,101521.09
2022-10-19T12:51:18.064Z,101521.88
2022-10-19T12:56:22.055Z,101511.91
2022-10-19T13:01:28.614Z,101503.75
2022-10-19T13:06:32.886Z,101507.19
2022-10-19T13:11:36.051Z,101503.59
2022-10-19T13:17:00.170Z,101495.13
2022-10-19T13:22:29.408Z,101495.84
2022-10-19T13:27:41.160Z,101500.25
2022-10-19T13:32:45.483Z,101496.69
2022-10-19T13:37:51.258Z,101493.03
2022-10-19T13:42:58.830Z,101496.59
2022-10-19T13:48:04.735Z,101498.31
2022-10-19T13:53:29.125Z,101498.41
2022-10-19T13:58:59.660Z,101498.31
2022-10-19T14:04:15.073Z,101506.19
2022-10-19T14:09:35.928Z,101492.00
2022-10-19T14:19:52.469Z,101484.59
2022-10-19T14:25:01.322Z,101478.47
2022-10-19T14:30:04.555Z,101484.78
2022-10-19T14:35:20.302Z,101486.00
2022-10-19T14:40:27.923Z,101478.75
2022-10-19T14:45:32.197Z,101481.50
2022-10-19T14:50:43.111Z,101481.72
2022-10-19T14:55:45.993Z,101481.72
2022-10-19T15:00:49.152Z,101473.66
2022-10-19T15:05:56.465Z,101480.75
2022-10-19T15:10:59.106Z,101471.94
2022-10-19T15:16:01.853Z,101472.13
2022-10-19T15:21:13.077Z,101473.25
2022-10-19T15:26:18.115Z,101472.28
2022-10-19T15:31:21.924Z,101462.72
2022-10-19T15:36:26.595Z,101475.28
2022-10-19T15:41:30.360Z,101468.06
2022-10-19T15:46:33.805Z,101463.66
2022-10-19T15:51:45.622Z,101466.34
2022-10-19T15:56:51.410Z,101459.91
2022-10-19T16:01:56.204Z,101451.88
2022-10-19T16:07:00.504Z,101452.56
2022-10-19T16:12:03.179Z,101449.28
2022-10-19T16:17:05.879Z,101452.44
2022-10-19T16:22:10.179Z,101460.03
2022-10-19T16:27:15.105Z,101460.63
2022-10-19T16:32:17.866Z,101450.34
2022-10-19T16:37:21.952Z,101459.09
2022-10-19T16:42:29.631Z,101464.16
2022-10-19T16:47:33.526Z,101468.69
2022-10-19T16:52:37.967Z,101472.72
2022-10-19T16:57:40.818Z,101465.78
2022-10-19T17:02:45.835Z,101472.03
2022-10-19T17:07:50.741Z,101470.13
2022-10-19T17:12:53.448Z,101470.91
2022-10-19T17:17:58.014Z,101463.72
2022-10-19T17:23:02.071Z,101464.78
2022-10-19T17:28:04.931Z,101473.75
2022-10-19T17:33:07.618Z,101474.06
2022-10-19T17:38:13.163Z,101463.41
2022-10-19T17:43:17.091Z,101467.81
2022-10-19T17:48:19.773Z,101461.97
2022-10-19T17:53:23.916Z,101475.00
2022-10-19T17:58:26.686Z,101470.03
2022-10-19T18:03:30.249Z,101468.03
2022-10-19T18:08:35.177Z,101465.94
2022-10-19T18:18:48.510Z,101462.69
2022-10-19T18:23:53.348Z,101466.59
2022-10-19T18:28:56.393Z,101463.66
2022-10-19T18:34:00.229Z,101460.66
2022-10-19T18:39:05.335Z,101458.63
2022-10-19T18:44:08.439Z,101449.41
2022-10-19T18:49:12.439Z,101443.06
2022-10-19T18:54:16.502Z,101433.94
2022-10-19T18:59:19.340Z,101432.69
2022-10-19T19:04:22.013Z,101428.06
2022-10-19T19:09:26.018Z,101424.97
2022-10-19T19:14:28.879Z,101427.47
2022-10-19T19:19:31.888Z,101414.88
2022-10-19T19:24:36.102Z,101427.16
2022-10-19T19:29:38.760Z,101426.00
2022-10-19T19:34:41.464Z,101428.47
2022-10-19T19:39:45.765Z,101434.53
2022-10-19T19:44:48.509Z,101428.84
2022-10-19T19:49:51.284Z,101437.59
2022-10-19T19:54:55.436Z,101435.69
2022-10-19T19:59:58.118Z,101437.28
2022-10-19T20:05:00.822Z,101433.63
2022-10-19T20:10:05.229Z,101433.41
2022-10-19T20:15:08.687Z,101440.63
2022-10-19T20:20:12.358Z,101438.72
2022-10-19T20:25:16.443Z,101435.06
2022-10-19T20:30:19.341Z,101437.53
2022-10-19T20:35:22.024Z,101443.47
2022-10-19T20:40:26.098Z,101438.97
2022-10-19T20:45:28.869Z,101439.63
2022-10-19T20:50:31.557Z,101428.00
2022-10-19T20:55:35.676Z,101425.94
2022-10-19T21:00:38.570Z,101417.88
2022-10-19T21:05:41.535Z,101416.91
2022-10-19T21:10:45.598Z,101410.97
2022-10-19T21:15:48.441Z,101404.94
2022-10-19T21:20:51.217Z,101397.06
2022-10-19T21:25:55.589Z,101382.97
2022-10-19T21:31:00.474Z,101385.66
2022-10-19T21:36:03.692Z,101379.53
2022-10-19T21:41:08.772Z,101385.97
2022-10-19T21:46:12.576Z,101374.34
2022-10-19T21:51:22.138Z,101368.22
2022-10-19T21:56:26.150Z,101373.03
2022-10-19T22:01:29.501Z,101363.13
2022-10-19T22:06:33.414Z,101355.72
2022-10-19T22:11:37.452Z,101356.03
2022-10-19T22:16:40.741Z,101363.19
2022-10-19T22:21:43.537Z,101357.19
2022-10-19T22:26:50.582Z,101359.00
2022-10-19T22:31:53.350Z,101360.84
2022-10-19T22:36:55.993Z,101347.50
2022-10-19T22:42:00.185Z,101349.41
2022-10-19T22:47:02.929Z,101338.84
2022-10-19T22:52:06.091Z,101339.28
2022-10-19T22:57:10.139Z,101327.75
2022-10-19T23:02:12.936Z,101329.81
2022-10-19T23:07:15.609Z,101326.53
2022-10-19T23:12:19.676Z,101325.78
2022-10-19T23:17:22.292Z,101319.19
2022-10-19T23:22:25.212Z,101324.13
2022-10-19T23:27:29.217Z,101314.63
2022-10-19T23:32:31.911Z,101302.56
2022-10-19T23:37:34.964Z,101297.41
2022-10-19T23:42:39.118Z,101299.44
2022-10-19T23:47:41.852Z,101299.94
2022-10-19T23:52:44.599Z,101293.78
2022-10-19T23:57:48.756Z,101295.91
